Observations for Trim Market St
| Time | AQI | Temp °C | Hum % | Pres Pa | CO μg/m³ | H₂S μg/m³ | NO μg/m³ | NO₂ μg/m³ | O₃ μg/m³ | SO₂ μg/m³ | PM1 μg/m³ | PM2.5 μg/m³ | PM10 μg/m³ |
|---|---|---|---|---|---|---|---|---|---|---|---|---|---|
| Friday 14 August 2026 | |||||||||||||
| 11:27 | 2 | 38.7 | 26 | 66,880 | 0 | 0 | 0 | 13.37 | 136.61 | 1.33 | 2.14 | 6.77 | 7.52 |
| 11:26 | 2 | 38.7 | 26 | 66,888 | 0 | 0 | 0 | 13.32 | 15.09 | 0.19 | 0 | 2.94 | 3.23 |
| 11:22 | 2 | 39 | 27 | 66,835 | 0.01 | 0 | 0 | 7.11 | 80.3 | 2.71 | 0 | 2.91 | 3.2 |
| 11:21 | 2 | 39 | 26 | 66,813 | 0 | 0 | 0 | 7.27 | 79.58 | 1.89 | 0 | 3.49 | 3.83 |
| 11:12 | 2 | 38.2 | 27 | 66,806 | 0 | 0 | 0 | 5.3 | 90.74 | 1.78 | 0 | 2.9 | 3.19 |
| 11:11 | 2 | 38.1 | 27 | 66,778 | 0 | 0 | 0 | 6.93 | 85.75 | 1.34 | 0 | 2.9 | 3.19 |
| 11:10 | 2 | 38.1 | 27 | 66,782 | 0 | 0 | 0 | 11.42 | 102.92 | 0.94 | 0 | 2.89 | 3.18 |
| 11:09 | 2 | 38.1 | 27 | 66,788 | 0 | 0 | 0 | 3.94 | 85.57 | 1.3 | 0 | 2.88 | 3.17 |
| 11:08 | 2 | 38.1 | 27 | 66,794 | 0 | 0 | 0 | 4.89 | 84.46 | 1.7 | 0 | 2.88 | 3.16 |
| 11:07 | 2 | 38.1 | 27 | 66,778 | 0 | 0 | 0 | 12.84 | 119.54 | 0.5 | 0 | 2.9 | 3.19 |
| 11:06 | 2 | 38.1 | 27 | 66,784 | 0 | 0 | 0 | 11.59 | 80.17 | 0.03 | 0 | 2.9 | 3.19 |
| 11:05 | 2 | 38.2 | 27 | 66,784 | 0.58 | 0 | 0 | 5.44 | 73.41 | 1.36 | 0 | 3.43 | 3.77 |
| 11:04 | 2 | 38.3 | 28 | 66,794 | 0.13 | 0 | 0 | 1.11 | 74.71 | 1.98 | 0 | 2.86 | 3.15 |
| 11:03 | 2 | 38.4 | 28 | 66,800 | 0 | 0 | 0 | 10.77 | 112.58 | 0.73 | 0 | 2.87 | 3.15 |
| 11:02 | 2 | 38.4 | 27 | 66,806 | 0 | 0 | 0 | 4.17 | 76.69 | 0.65 | 0 | 2.88 | 3.17 |
| 11:01 | 2 | 38.4 | 28 | 66,815 | 0 | 0 | 0 | 3.26 | 78.68 | 0.63 | 0 | 3.39 | 3.73 |
| 11:00 | 2 | 38.4 | 28 | 66,827 | 0 | 0 | 0 | 4.33 | 84.44 | 0.98 | 2.14 | 4.49 | 4.94 |
| 10:59 | 2 | 38.4 | 28 | 66,839 | 0 | 0 | 0 | 8.21 | 70.08 | 0 | 0.71 | 3.93 | 4.33 |
| 10:57 | 2 | 38.3 | 28 | 66,825 | 0 | 0 | 0 | 6.15 | 78.11 | 0.66 | 0 | 2.83 | 3.11 |
| 10:56 | 2 | 38.3 | 28 | 66,811 | 0 | 0 | 0 | 5.15 | 85.86 | 0.34 | 0 | 2.83 | 3.12 |